Time;durP1;ratioP1;P1;durP2;ratioP2;P2;SDS_P1;SDS_P2;PMS_P1;PMS_P2;Temp;Humidity;BMP_temperature;BMP_pressure;BME280_temperature;BME280_humidity;BME280_pressure;Samples;Min_cycle;Max_cycle;Signal;HPM_P1;HPM_P2
2022/11/29 00:00:00;;;;;;;39.97;16.42;;;10.40;90.60;;;;;;5031438;28;20018;-70
2022/11/29 00:02:26;;;;;;;39.30;17.10;;;10.50;90.60;;;;;;5032853;28;20435;-69
2022/11/29 00:04:51;;;;;;;49.05;17.25;;;10.40;90.50;;;;;;5030802;28;20044;-67
2022/11/29 00:07:17;;;;;;;35.42;16.38;;;10.40;90.50;;;;;;5029585;28;20025;-67
2022/11/29 00:09:42;;;;;;;32.88;14.73;;;10.40;90.50;;;;;;5031587;28;20029;-67
2022/11/29 00:12:11;;;;;;;37.45;16.40;;;10.40;90.50;;;;;;5030477;28;20441;-66
2022/11/29 00:14:36;;;;;;;44.70;17.33;;;10.40;90.50;;;;;;5031764;28;20060;-67
2022/11/29 00:17:03;;;;;;;35.95;15.65;;;10.40;90.50;;;;;;5032219;28;20053;-68
2022/11/29 00:19:30;;;;;;;40.63;17.13;;;10.40;90.40;;;;;;5029061;28;20028;-68
2022/11/29 00:21:55;;;;;;;35.33;15.00;;;10.40;90.50;;;;;;5030687;28;20100;-68
2022/11/29 00:24:21;;;;;;;35.28;15.88;;;10.40;90.50;;;;;;5030105;28;20116;-68
2022/11/29 00:26:47;;;;;;;36.90;16.83;;;10.50;90.50;;;;;;5030948;28;20026;-69
2022/11/29 00:29:13;;;;;;;41.25;15.40;;;10.40;90.40;;;;;;5031104;28;20022;-67
2022/11/29 00:31:39;;;;;;;50.25;15.48;;;10.40;90.50;;;;;;5028165;28;20049;-68
2022/11/29 00:34:05;;;;;;;46.65;16.25;;;10.40;90.40;;;;;;5028903;28;20574;-69
2022/11/29 00:36:33;;;;;;;46.30;17.45;;;10.40;90.40;;;;;;5027816;28;20029;-68
2022/11/29 00:38:59;;;;;;;37.22;16.42;;;10.30;90.40;;;;;;5029244;28;20028;-69
2022/11/29 00:41:25;;;;;;;37.72;15.75;;;10.30;90.50;;;;;;5029558;28;20018;-69
2022/11/29 00:43:50;;;;;;;40.47;16.42;;;10.30;90.60;;;;;;5029621;28;20403;-69
2022/11/29 00:46:16;;;;;;;39.53;16.63;;;10.30;90.90;;;;;;5030346;28;20492;-69
2022/11/29 00:48:42;;;;;;;38.45;16.65;;;10.30;90.60;;;;;;5029255;28;20379;-69
2022/11/29 00:51:07;;;;;;;40.65;17.33;;;10.30;90.60;;;;;;5030009;28;20026;-70
2022/11/29 00:53:34;;;;;;;64.18;18.88;;;10.30;90.50;;;;;;5030976;28;20022;-69
2022/11/29 00:56:01;;;;;;;38.70;18.33;;;10.30;90.50;;;;;;5029417;28;20037;-68
2022/11/29 00:58:27;;;;;;;40.55;16.98;;;10.30;90.60;;;;;;5028583;28;20095;-69
2022/11/29 01:00:53;;;;;;;43.00;18.48;;;10.30;90.60;;;;;;5027323;28;20021;-69
2022/11/29 01:03:19;;;;;;;39.65;16.85;;;10.30;90.60;;;;;;5027680;28;20048;-70
2022/11/29 01:05:44;;;;;;;40.47;17.83;;;10.30;90.60;;;;;;5029881;28;20107;-69
2022/11/29 01:08:11;;;;;;;42.85;18.05;;;10.30;90.60;;;;;;5028297;28;20037;-70
2022/11/29 01:10:37;;;;;;;38.55;15.45;;;10.30;90.60;;;;;;5030414;28;20025;-69
2022/11/29 01:13:03;;;;;;;36.88;14.75;;;10.30;90.60;;;;;;5029324;28;20048;-70
2022/11/29 01:15:28;;;;;;;40.85;15.45;;;10.30;90.60;;;;;;5030393;28;20033;-70
2022/11/29 01:17:54;;;;;;;47.63;15.48;;;10.40;90.50;;;;;;5029769;28;20026;-70
2022/11/29 01:20:20;;;;;;;42.50;14.90;;;10.40;90.50;;;;;;5028046;28;20025;-69
2022/11/29 01:22:45;;;;;;;42.55;16.63;;;10.50;90.50;;;;;;5029090;28;20034;-70
2022/11/29 01:25:12;;;;;;;53.33;19.77;;;10.40;90.40;;;;;;5029481;28;20025;-70
2022/11/29 01:27:38;;;;;;;47.47;18.52;;;10.40;90.40;;;;;;5030416;28;20049;-70
2022/11/29 01:30:05;;;;;;;43.38;18.05;;;10.40;90.40;;;;;;5030778;28;20413;-70
2022/11/29 01:32:31;;;;;;;46.58;17.50;;;10.40;90.50;;;;;;5028316;28;20112;-70
2022/11/29 01:34:57;;;;;;;44.65;16.95;;;10.40;90.50;;;;;;5027243;28;20085;-70
2022/11/29 01:37:23;;;;;;;42.15;16.27;;;10.40;90.50;;;;;;5029961;28;20036;-71
2022/11/29 01:39:48;;;;;;;44.15;17.80;;;10.40;90.50;;;;;;5028487;28;20021;-70
2022/11/29 01:42:15;;;;;;;48.38;17.20;;;10.50;90.50;;;;;;5028973;28;20365;-69
2022/11/29 01:44:43;;;;;;;44.17;17.77;;;10.50;90.50;;;;;;5028627;28;20060;-70
2022/11/29 01:47:10;;;;;;;38.22;16.35;;;10.50;90.50;;;;;;5026505;28;20026;-69
2022/11/29 01:49:42;;;;;;;36.92;16.30;;;10.40;90.40;;;;;;5028647;28;20033;-66
2022/11/29 01:52:20;;;;;;;46.20;17.27;;;10.40;90.50;;;;;;5029358;28;20396;-67
2022/11/29 01:54:54;;;;;;;43.20;16.73;;;10.40;90.40;;;;;;5024601;28;20546;-69
2022/11/29 01:57:20;;;;;;;44.67;18.45;;;10.40;90.40;;;;;;5030267;28;20029;-69
2022/11/29 01:59:49;;;;;;;47.42;17.98;;;10.40;90.40;;;;;;5029142;28;20029;-68
2022/11/29 02:02:20;;;;;;;44.40;17.25;;;10.30;90.70;;;;;;5030144;28;20041;-68
2022/11/29 02:04:48;;;;;;;41.90;16.60;;;10.40;90.50;;;;;;5028150;28;20028;-70
2022/11/29 02:07:14;;;;;;;38.15;15.90;;;10.30;90.50;;;;;;5027517;28;20128;-69
2022/11/29 02:09:40;;;;;;;40.97;16.10;;;10.40;90.40;;;;;;5026948;28;20025;-70
2022/11/29 02:12:56;;;;;;;44.28;17.00;;;10.40;90.40;;;;;;5029353;28;20454;-67
2022/11/29 02:15:44;;;;;;;42.92;16.75;;;10.40;90.40;;;;;;4977030;28;20038;-69
2022/11/29 02:18:28;;;;;;;53.90;16.52;;;10.40;90.70;;;;;;5028721;28;20514;-68
2022/11/29 02:21:11;;;;;;;60.80;16.75;;;10.40;90.40;;;;;;5029150;28;20701;-69
2022/11/29 02:23:39;;;;;;;;;;;10.40;90.30;;;;;;5027032;28;20082;-69
2022/11/29 02:26:20;;;;;;;63.40;16.55;;;10.40;90.30;;;;;;5029804;28;19916;-69
2022/11/29 02:29:16;;;;;;;64.55;17.70;;;10.30;90.40;;;;;;5029096;28;20496;-69
2022/11/29 02:32:19;;;;;;;42.13;16.85;;;10.30;90.50;;;;;;5026326;28;20037;-70
2022/11/29 02:34:47;;;;;;;60.67;15.70;;;10.30;90.50;;;;;;5029894;28;20048;-68
2022/11/29 02:37:22;;;;;;;34.25;14.00;;;10.40;90.50;;;;;;5029726;28;20080;-69
2022/11/29 02:40:15;;;;;;;56.10;18.52;;;10.30;90.40;;;;;;5031540;28;20200;-70
2022/11/29 02:43:00;;;;;;;62.63;16.85;;;10.30;90.50;;;;;;5024943;28;20097;-68
2022/11/29 02:45:54;;;;;;;63.88;17.88;;;10.40;90.50;;;;;;5027494;28;20475;-68
2022/11/29 02:48:40;;;;;;;62.05;18.13;;;10.40;90.40;;;;;;5028331;28;20086;-68
2022/11/29 02:51:21;;;;;;;71.40;19.08;;;10.30;90.40;;;;;;5033606;28;20117;-68
2022/11/29 02:54:11;;;;;;;57.67;16.90;;;10.30;90.40;;;;;;5026762;28;20025;-70
2022/11/29 02:56:52;;;;;;;46.78;16.15;;;10.30;90.50;;;;;;5028264;28;20041;-69
2022/11/29 02:59:51;;;;;;;42.55;17.70;;;10.30;90.50;;;;;;5028269;28;20064;-67
2022/11/29 03:02:26;;;;;;;41.63;16.80;;;10.30;90.50;;;;;;5025391;28;20029;-68
2022/11/29 03:05:20;;;;;;;47.30;17.13;;;10.30;90.50;;;;;;5025888;28;20029;-68
2022/11/29 03:08:12;;;;;;;47.75;16.92;;;10.30;90.50;;;;;;5027025;28;20025;-67
2022/11/29 03:11:02;;;;;;;49.85;16.30;;;10.30;90.50;;;;;;5025720;28;20500;-69
2022/11/29 03:14:09;;;;;;;45.63;16.95;;;10.40;90.40;;;;;;5026181;28;20034;-67
2022/11/29 03:16:50;;;;;;;42.15;16.23;;;10.40;90.40;;;;;;5025961;28;20025;-68
2022/11/29 03:19:34;;;;;;;56.60;16.63;;;10.40;90.40;;;;;;5026394;28;20025;-68
2022/11/29 03:22:18;;;;;;;44.75;16.45;;;10.40;90.40;;;;;;5026470;28;20017;-69
2022/11/29 03:24:49;;;;;;;47.33;19.13;;;10.40;90.50;;;;;;5028506;28;20025;-68
2022/11/29 03:27:24;;;;;;;47.40;17.17;;;10.40;90.40;;;;;;5026704;28;20164;-69
2022/11/29 03:29:55;;;;;;;41.05;15.30;;;10.40;90.50;;;;;;5027150;28;20511;-69
2022/11/29 03:32:20;;;;;;;53.50;18.57;;;10.50;90.50;;;;;;5029540;28;20029;-69
2022/11/29 03:35:17;;;;;;;57.72;17.65;;;10.40;90.40;;;;;;5030555;28;20041;-69
2022/11/29 03:38:18;;;;;;;59.85;18.23;;;10.40;90.40;;;;;;5030602;28;20025;-70
2022/11/29 03:41:16;;;;;;;59.53;18.92;;;10.40;90.40;;;;;;5029750;28;20021;-69
2022/11/29 03:43:48;;;;;;;57.88;17.00;;;10.40;90.40;;;;;;5031606;28;20026;-69
2022/11/29 03:46:21;;;;;;;51.67;18.38;;;10.30;90.40;;;;;;5029291;28;20018;-67
2022/11/29 03:48:52;;;;;;;52.33;16.50;;;10.30;90.40;;;;;;5030491;28;20594;-71
2022/11/29 03:51:48;;;;;;;54.90;17.13;;;10.30;90.40;;;;;;5028106;28;20075;-70
2022/11/29 03:54:34;;;;;;;55.10;16.55;;;10.30;90.50;;;;;;5031842;28;20029;-70
2022/11/29 03:57:00;;;;;;;49.05;16.88;;;10.30;90.50;;;;;;5030823;28;20098;-70
2022/11/29 03:59:50;;;;;;;52.42;16.30;;;10.30;90.50;;;;;;5031561;28;20029;-70
2022/11/29 04:02:44;;;;;;;50.80;15.43;;;10.20;90.40;;;;;;5031247;28;20120;-71
2022/11/29 04:05:15;;;;;;;83.53;16.80;;;10.20;90.50;;;;;;5029821;28;20033;-71
2022/11/29 04:08:12;;;;;;;63.83;15.90;;;10.20;90.40;;;;;;5032112;28;20422;-71
2022/11/29 04:11:12;;;;;;;60.97;14.55;;;10.20;90.50;;;;;;5029946;28;20047;-69
2022/11/29 04:14:11;;;;;;;35.72;14.90;;;10.20;90.50;;;;;;5030199;28;20025;-69
2022/11/29 04:17:02;;;;;;;44.58;16.38;;;10.30;90.50;;;;;;5028975;28;20025;-69
2022/11/29 04:19:48;;;;;;;41.00;16.45;;;10.30;90.50;;;;;;5030162;28;20028;-67
2022/11/29 04:22:38;;;;;;;46.92;15.95;;;10.30;90.50;;;;;;5032139;28;20028;-70
2022/11/29 04:25:07;;;;;;;46.30;15.38;;;10.30;90.50;;;;;;5030356;28;20108;-70
2022/11/29 04:27:39;;;;;;;48.95;16.85;;;10.30;90.40;;;;;;5031431;28;20030;-70
2022/11/29 04:30:23;;;;;;;62.65;15.43;;;10.30;90.40;;;;;;5028877;28;20535;-69
2022/11/29 04:33:06;;;;;;;55.92;14.95;;;10.30;90.50;;;;;;5031639;28;20055;-70
2022/11/29 04:35:47;;;;;;;80.10;16.33;;;10.30;90.50;;;;;;5029484;28;20451;-69
2022/11/29 04:38:28;;;;;;;45.55;13.98;;;10.30;90.50;;;;;;5029113;28;20029;-70
2022/11/29 04:41:05;;;;;;;54.30;13.93;;;10.20;90.50;;;;;;5030176;28;20025;-71
2022/11/29 04:43:33;;;;;;;49.95;14.00;;;10.30;90.50;;;;;;5025872;28;20028;-70
2022/11/29 04:46:12;;;;;;;47.10;14.55;;;10.30;90.50;;;;;;5030262;28;20025;-71
2022/11/29 04:48:38;;;;;;;52.13;14.25;;;10.30;90.50;;;;;;5027495;28;20060;-70
2022/11/29 04:51:25;;;;;;;65.30;15.48;;;10.40;90.50;;;;;;5030028;28;20033;-71
2022/11/29 04:54:14;;;;;;;44.03;15.52;;;10.40;90.40;;;;;;5030441;28;20048;-71
2022/11/29 04:56:51;;;;;;;51.95;15.43;;;10.40;90.30;;;;;;5028836;28;20124;-69
2022/11/29 04:59:49;;;;;;;54.47;15.43;;;10.40;90.40;;;;;;5041264;28;20033;-70
2022/11/29 05:02:18;;;;;;;77.05;16.25;;;10.40;90.40;;;;;;5027722;28;20184;-69
2022/11/29 05:04:54;;;;;;;62.85;14.05;;;10.50;90.40;;;;;;5032072;28;20029;-69
2022/11/29 05:08:00;;;;;;;52.00;14.70;;;10.50;90.30;;;;;;5027790;28;20110;-70
2022/11/29 05:11:04;;;;;;;43.47;16.15;;;10.50;90.30;;;;;;5029983;28;20064;-71
2022/11/29 05:13:56;;;;;;;70.07;15.27;;;10.50;90.30;;;;;;5029849;28;20136;-69
2022/11/29 05:17:00;;;;;;;73.43;15.13;;;10.50;90.20;;;;;;5030546;28;20032;-70
2022/11/29 05:20:08;;;;;;;44.88;15.20;;;10.50;90.20;;;;;;5028953;28;20171;-68
2022/11/29 05:22:56;;;;;;;66.03;14.27;;;10.50;90.30;;;;;;5028449;28;20037;-68
2022/11/29 05:25:57;;;;;;;48.88;13.65;;;10.50;90.30;;;;;;5029656;28;20400;-68
2022/11/29 05:28:47;;;;;;;67.22;15.80;;;10.50;90.30;;;;;;5026573;28;20045;-70
2022/11/29 05:31:42;;;;;;;58.05;16.05;;;10.40;90.20;;;;;;5029512;28;20033;-69
2022/11/29 05:34:32;;;;;;;42.03;14.10;;;10.40;90.30;;;;;;5030157;28;20507;-68
2022/11/29 05:37:15;;;;;;;52.15;14.48;;;10.40;90.30;;;;;;5026855;28;20025;-68
2022/11/29 05:39:59;;;;;;;63.17;15.35;;;10.40;90.30;;;;;;5031340;28;20029;-69
2022/11/29 05:42:45;;;;;;;86.57;15.15;;;10.40;90.20;;;;;;5029134;28;20024;-69
2022/11/29 05:45:29;;;;;;;58.05;15.27;;;10.40;90.30;;;;;;5029659;28;20079;-69
2022/11/29 05:48:17;;;;;;;58.08;16.80;;;10.50;90.30;;;;;;5028717;28;20080;-68
2022/11/29 05:51:04;;;;;;;50.75;14.95;;;10.40;90.20;;;;;;5024468;28;20034;-68
2022/11/29 05:54:03;;;;;;;43.55;14.23;;;10.40;90.30;;;;;;5028309;28;20558;-69
2022/11/29 05:56:47;;;;;;;49.40;14.88;;;10.40;90.30;;;;;;5026511;28;20480;-69
2022/11/29 05:59:19;;;;;;;55.45;14.57;;;10.40;90.30;;;;;;5028530;28;20050;-69
2022/11/29 06:02:11;;;;;;;64.60;14.85;;;10.40;90.40;;;;;;5028220;28;20080;-68
2022/11/29 06:04:58;;;;;;;38.67;13.32;;;10.40;90.40;;;;;;5029701;28;20070;-69
2022/11/29 06:07:47;;;;;;;33.78;12.88;;;10.40;90.40;;;;;;5029467;28;20034;-68
2022/11/29 06:10:17;;;;;;;41.40;12.82;;;10.40;90.40;;;;;;5028580;28;20025;-68
2022/11/29 06:13:27;;;;;;;39.13;12.80;;;10.40;90.40;;;;;;5026397;28;20075;-68
2022/11/29 06:16:09;;;;;;;63.45;14.45;;;10.50;90.40;;;;;;5020815;28;20045;-68
2022/11/29 06:19:25;;;;;;;40.60;12.43;;;10.50;90.30;;;;;;5030083;28;20488;-69
2022/11/29 06:22:20;;;;;;;78.47;13.25;;;10.50;90.30;;;;;;5023958;28;20041;-68
2022/11/29 06:25:09;;;;;;;38.50;13.40;;;10.50;90.30;;;;;;5029536;28;20037;-69
2022/11/29 06:28:05;;;;;;;53.83;13.93;;;10.40;90.20;;;;;;5021512;28;20132;-68
2022/11/29 06:31:04;;;;;;;72.18;13.18;;;10.40;90.50;;;;;;5033669;28;20033;-70
2022/11/29 06:33:48;;;;;;;35.92;11.95;;;10.40;90.20;;;;;;5007652;28;20051;-69
2022/11/29 06:36:28;;;;;;;52.10;13.25;;;10.30;90.20;;;;;;5023768;28;20030;-68
2022/11/29 06:38:54;;;;;;;43.15;14.18;;;10.30;90.30;;;;;;5027233;28;20034;-69
2022/11/29 06:41:22;;;;;;;33.72;13.82;;;10.30;90.10;;;;;;5025612;28;20076;-68
2022/11/29 06:43:49;;;;;;;69.63;14.15;;;10.40;90.40;;;;;;5024792;28;20027;-69
2022/11/29 06:46:24;;;;;;;57.17;14.23;;;10.40;90.30;;;;;;5026173;28;20044;-69
2022/11/29 06:49:10;;;;;;;41.28;11.00;;;10.40;90.30;;;;;;5025439;28;20746;-67
2022/11/29 06:51:47;;;;;;;36.72;12.75;;;10.40;90.30;;;;;;5029960;28;20683;-68
2022/11/29 06:54:47;;;;;;;47.35;14.30;;;10.40;90.20;;;;;;5023633;28;20025;-69
2022/11/29 06:57:25;;;;;;;55.60;13.38;;;10.30;90.20;;;;;;5026487;28;20022;-69
2022/11/29 07:00:04;;;;;;;24.65;9.98;;;10.30;90.40;;;;;;5024679;28;20037;-68
2022/11/29 07:02:57;;;;;;;26.75;11.85;;;10.30;90.20;;;;;;5027649;28;20449;-69
2022/11/29 07:05:26;;;;;;;39.28;12.15;;;10.30;90.30;;;;;;5026470;28;20025;-71
2022/11/29 07:07:54;;;;;;;28.95;11.10;;;10.30;90.30;;;;;;5029454;28;20022;-71
2022/11/29 07:10:20;;;;;;;43.80;13.32;;;10.30;90.30;;;;;;5028953;28;20508;-69
2022/11/29 07:12:47;;;;;;;34.17;11.80;;;10.30;90.30;;;;;;5032440;28;20025;-69
2022/11/29 07:15:19;;;;;;;53.60;12.57;;;10.30;90.20;;;;;;5032214;28;20484;-69
2022/11/29 07:17:51;;;;;;;;;;;10.30;90.20;;;;;;5032124;28;20022;-70
2022/11/29 07:20:38;;;;;;;40.28;11.50;;;10.30;90.10;;;;;;5033293;28;19909;-69
2022/11/29 07:23:22;;;;;;;37.20;12.38;;;10.30;90.30;;;;;;5028856;28;20033;-68
2022/11/29 07:26:15;;;;;;;35.13;12.07;;;10.30;90.30;;;;;;5026671;28;20113;-69
2022/11/29 07:29:15;;;;;;;35.30;12.15;;;10.30;90.50;;;;;;5027711;28;20043;-68
2022/11/29 07:31:41;;;;;;;33.40;11.25;;;10.30;90.30;;;;;;5007979;28;20667;-69
2022/11/29 07:34:29;;;;;;;33.25;11.52;;;10.30;90.20;;;;;;5029813;28;20032;-70
2022/11/29 07:37:22;;;;;;;28.52;10.98;;;10.30;90.20;;;;;;5020425;28;20204;-68
2022/11/29 07:39:59;;;;;;;59.72;12.07;;;10.30;90.20;;;;;;5031377;28;20036;-69
2022/11/29 07:42:40;;;;;;;31.67;11.30;;;10.30;90.10;;;;;;5033529;28;20551;-68
2022/11/29 07:45:20;;;;;;;29.75;10.80;;;10.20;90.10;;;;;;5032706;28;20052;-69
2022/11/29 07:47:45;;;;;;;26.83;10.10;;;10.20;90.20;;;;;;5027361;28;20014;-68
2022/11/29 07:50:11;;;;;;;31.75;9.93;;;10.20;90.20;;;;;;5038378;28;20483;-68
2022/11/29 07:52:37;;;;;;;32.88;11.30;;;10.30;90.30;;;;;;5033419;28;20025;-69
2022/11/29 07:55:03;;;;;;;43.63;11.57;;;10.20;90.30;;;;;;5039170;28;20021;-69
2022/11/29 07:57:29;;;;;;;33.15;10.88;;;10.30;90.20;;;;;;5040215;28;20017;-70
2022/11/29 07:59:55;;;;;;;29.33;10.27;;;10.20;90.20;;;;;;5039535;28;20032;-69
2022/11/29 08:02:28;;;;;;;24.60;10.00;;;10.30;90.20;;;;;;5031883;28;20614;-70
2022/11/29 08:04:54;;;;;;;35.33;9.80;;;10.20;90.20;;;;;;5033199;28;20033;-68
2022/11/29 08:07:19;;;;;;;33.10;9.75;;;10.20;90.10;;;;;;5038508;28;20037;-69
2022/11/29 08:09:45;;;;;;;27.98;9.10;;;10.20;90.10;;;;;;5037927;28;20503;-70
2022/11/29 08:12:10;;;;;;;29.95;10.05;;;10.20;90.10;;;;;;5033250;28;20025;-70
2022/11/29 08:14:36;;;;;;;32.30;10.38;;;10.20;90.20;;;;;;5040029;28;20392;-71
2022/11/29 08:17:01;;;;;;;45.97;10.20;;;10.20;90.20;;;;;;5031142;28;20670;-71
2022/11/29 08:19:27;;;;;;;62.42;10.23;;;10.20;90.10;;;;;;5035485;28;20547;-71
2022/11/29 08:21:52;;;;;;;24.00;9.27;;;10.20;90.10;;;;;;5031923;28;20118;-69
2022/11/29 08:24:18;;;;;;;46.92;9.63;;;10.20;90.10;;;;;;5034205;28;20086;-70
2022/11/29 08:26:43;;;;;;;37.83;9.95;;;10.10;90.10;;;;;;5040353;28;20541;-70
2022/11/29 08:29:09;;;;;;;18.85;9.13;;;10.20;90.10;;;;;;5034320;28;20089;-71
2022/11/29 08:31:35;;;;;;;19.27;8.35;;;10.10;90.00;;;;;;5033499;28;20013;-69
2022/11/29 08:34:01;;;;;;;17.25;8.02;;;10.10;90.10;;;;;;5039694;28;20049;-70
2022/11/29 08:36:26;;;;;;;19.50;8.20;;;10.10;90.10;;;;;;5033988;28;20573;-71
2022/11/29 08:38:53;;;;;;;20.33;8.68;;;10.10;90.10;;;;;;5034832;28;20043;-71
2022/11/29 08:41:18;;;;;;;21.35;8.98;;;10.10;90.40;;;;;;5040864;28;20028;-71
2022/11/29 08:43:44;;;;;;;26.27;8.77;;;10.10;90.10;;;;;;5035600;28;20026;-70
2022/11/29 08:46:10;;;;;;;31.17;10.30;;;10.10;90.10;;;;;;5034546;28;20037;-70
2022/11/29 08:48:35;;;;;;;23.67;8.68;;;10.10;90.00;;;;;;5037100;28;20099;-70
2022/11/29 08:51:03;;;;;;;22.00;8.27;;;10.10;90.10;;;;;;5034245;28;20032;-70
2022/11/29 08:53:41;;;;;;;39.03;8.70;;;10.10;90.20;;;;;;5035028;28;20068;-71
2022/11/29 08:56:09;;;;;;;21.58;8.68;;;10.20;90.20;;;;;;5032458;28;20032;-71
2022/11/29 08:58:35;;;;;;;46.95;10.63;;;10.10;90.10;;;;;;5038430;28;20037;-70
2022/11/29 09:01:01;;;;;;;31.30;9.77;;;10.10;90.00;;;;;;5033814;28;20028;-71
2022/11/29 09:06:13;;;;;;;23.95;9.20;;;10.10;90.10;;;;;;5034469;28;20079;-70
2022/11/29 09:08:42;;;;;;;20.42;8.20;;;10.10;90.00;;;;;;5037425;28;20463;-69
2022/11/29 09:11:13;;;;;;;66.63;10.13;;;10.20;90.10;;;;;;5030892;28;20033;-70
2022/11/29 09:13:44;;;;;;;19.30;8.27;;;10.10;90.10;;;;;;5030345;28;20029;-70
2022/11/29 09:16:12;;;;;;;46.72;10.18;;;10.10;90.10;;;;;;5033333;28;20248;-70
2022/11/29 09:18:38;;;;;;;22.10;8.30;;;10.10;90.10;;;;;;5039804;28;20431;-70
2022/11/29 09:21:09;;;;;;;18.55;7.85;;;10.10;90.10;;;;;;5030840;28;20026;-70
2022/11/29 09:23:35;;;;;;;26.80;10.32;;;10.20;90.10;;;;;;5032820;28;20044;-71
2022/11/29 09:26:01;;;;;;;23.77;10.00;;;10.20;90.10;;;;;;5034303;28;20026;-71
2022/11/29 09:28:27;;;;;;;19.20;8.10;;;10.20;90.10;;;;;;5029746;28;20033;-70
2022/11/29 09:30:53;;;;;;;24.38;9.45;;;10.20;90.10;;;;;;5034011;28;20509;-70
2022/11/29 09:33:18;;;;;;;23.85;9.15;;;10.20;90.10;;;;;;5033242;28;20025;-70
2022/11/29 09:35:44;;;;;;;24.38;9.70;;;10.30;90.10;;;;;;5032083;28;20040;-70
2022/11/29 09:38:11;;;;;;;22.77;9.55;;;10.30;90.10;;;;;;5031249;28;20044;-69
2022/11/29 09:40:45;;;;;;;20.02;8.57;;;10.30;90.00;;;;;;5039033;28;20634;-70
2022/11/29 09:43:30;;;;;;;21.17;9.70;;;10.20;90.00;;;;;;5028175;28;20080;-71
2022/11/29 09:46:04;;;;;;;25.27;10.07;;;10.30;90.10;;;;;;5026252;28;20037;-70
2022/11/29 09:48:50;;;;;;;24.17;9.02;;;10.30;90.10;;;;;;5028543;28;20119;-70
2022/11/29 09:51:58;;;;;;;19.33;8.57;;;10.30;90.10;;;;;;5030037;28;20025;-70
2022/11/29 09:54:42;;;;;;;18.08;8.55;;;10.20;90.10;;;;;;5028678;28;20025;-70
2022/11/29 09:57:09;;;;;;;21.02;8.85;;;10.20;90.00;;;;;;5029369;28;20029;-70
2022/11/29 09:59:44;;;;;;;23.40;7.97;;;10.20;90.10;;;;;;5031645;28;20025;-70
2022/11/29 10:02:22;;;;;;;24.55;9.75;;;10.20;90.10;;;;;;5022973;28;20112;-69
2022/11/29 10:05:02;;;;;;;20.55;8.07;;;10.20;90.10;;;;;;5034411;28;20097;-70
2022/11/29 10:07:37;;;;;;;21.73;9.45;;;10.20;90.10;;;;;;5023900;28;20057;-70
2022/11/29 10:10:11;;;;;;;19.77;9.10;;;10.30;90.10;;;;;;5036370;28;20034;-70
2022/11/29 10:12:48;;;;;;;20.55;9.50;;;10.30;90.00;;;;;;5034114;28;20030;-71
2022/11/29 10:15:33;;;;;;;19.55;8.70;;;10.40;89.90;;;;;;5030281;28;20487;-70
2022/11/29 10:18:11;;;;;;;23.13;9.95;;;10.40;89.90;;;;;;5031541;28;20476;-69
2022/11/29 10:20:39;;;;;;;22.48;10.18;;;10.40;89.90;;;;;;5029836;28;20103;-69
2022/11/29 10:23:15;;;;;;;17.33;8.75;;;10.40;89.90;;;;;;5033981;28;20017;-69
2022/11/29 10:25:50;;;;;;;18.25;8.70;;;10.40;89.90;;;;;;5036549;28;20033;-69
2022/11/29 10:28:18;;;;;;;14.48;7.38;;;10.40;89.80;;;;;;5035527;28;20131;-70
2022/11/29 10:30:45;;;;;;;13.73;6.70;;;10.40;90.00;;;;;;5030059;28;20538;-70
2022/11/29 10:33:29;;;;;;;19.55;7.88;;;10.40;89.90;;;;;;5032795;28;20022;-69
2022/11/29 10:36:01;;;;;;;17.83;7.50;;;10.40;89.80;;;;;;5027892;28;20042;-70
2022/11/29 10:38:27;;;;;;;19.05;7.68;;;10.50;89.70;;;;;;5031128;28;20014;-71
2022/11/29 10:40:57;;;;;;;19.35;7.60;;;10.50;89.70;;;;;;5033234;28;20017;-70
2022/11/29 10:43:24;;;;;;;17.70;7.72;;;10.60;89.70;;;;;;5031228;28;20018;-69
2022/11/29 10:45:54;;;;;;;81.80;32.13;;;10.60;89.60;;;;;;5032841;28;20124;-69
2022/11/29 10:48:24;;;;;;;68.13;31.02;;;10.60;89.30;;;;;;5032136;28;20076;-70
2022/11/29 10:50:51;;;;;;;61.33;23.23;;;10.50;89.40;;;;;;5032425;28;20116;-70
2022/11/29 10:53:22;;;;;;;47.03;23.05;;;10.50;89.50;;;;;;5027898;28;20584;-69
2022/11/29 10:56:19;;;;;;;46.28;13.68;;;10.60;89.50;;;;;;5037103;28;20096;-70
2022/11/29 10:59:03;;;;;;;37.50;9.27;;;10.60;89.50;;;;;;5025670;28;20149;-70
2022/11/29 11:01:41;;;;;;;23.40;7.78;;;10.50;89.30;;;;;;5026085;28;20026;-70
2022/11/29 11:04:14;;;;;;;28.80;6.78;;;10.50;89.40;;;;;;5035125;28;20070;-70
2022/11/29 11:06:55;;;;;;;23.38;7.43;;;10.50;89.50;;;;;;5031260;28;20042;-70
2022/11/29 11:09:20;;;;;;;17.27;7.03;;;10.50;89.60;;;;;;5030429;28;20488;-70
2022/11/29 11:11:56;;;;;;;19.00;8.48;;;10.50;89.60;;;;;;5034831;28;20033;-70
2022/11/29 11:14:23;;;;;;;16.42;8.02;;;10.60;89.70;;;;;;5035986;28;20029;-71
2022/11/29 11:16:48;;;;;;;12.75;5.70;;;10.60;89.50;;;;;;5031179;28;20029;-69
2022/11/29 11:19:20;;;;;;;16.98;7.55;;;10.60;89.60;;;;;;5030173;28;20474;-70
2022/11/29 11:21:45;;;;;;;16.85;7.53;;;10.60;89.50;;;;;;5037391;28;20025;-70
2022/11/29 11:24:23;;;;;;;21.48;8.43;;;10.70;89.40;;;;;;5036347;28;20092;-70
2022/11/29 11:26:48;;;;;;;23.92;11.38;;;10.70;89.50;;;;;;5029757;28;20033;-69
2022/11/29 11:29:25;;;;;;;33.28;14.95;;;10.70;89.40;;;;;;5030286;28;20431;-70
2022/11/29 11:31:54;;;;;;;40.35;14.88;;;10.70;89.40;;;;;;5037133;28;20086;-69
2022/11/29 11:34:30;;;;;;;30.33;14.18;;;10.70;89.30;;;;;;5037146;28;20218;-71
2022/11/29 11:37:13;;;;;;;25.13;12.48;;;10.70;89.50;;;;;;5023223;28;20026;-70
2022/11/29 11:39:41;;;;;;;21.65;10.48;;;10.70;89.60;;;;;;5042300;28;20022;-70
2022/11/29 11:45:26;;;;;;;16.60;8.50;;;10.80;89.50;;;;;;5030399;28;20040;-69
2022/11/29 11:47:54;;;;;;;19.95;8.07;;;10.80;89.40;;;;;;5020537;28;20042;-70
2022/11/29 11:50:23;;;;;;;13.98;6.47;;;10.80;89.30;;;;;;5031462;28;20420;-71
2022/11/29 11:52:52;;;;;;;17.85;8.45;;;10.80;89.40;;;;;;5033699;28;20081;-70
2022/11/29 11:55:21;;;;;;;17.27;8.18;;;10.90;89.40;;;;;;5033569;28;20489;-70
2022/11/29 11:57:57;;;;;;;17.83;8.20;;;11.00;89.30;;;;;;5034349;28;20021;-70
2022/11/29 12:00:43;;;;;;;18.38;7.97;;;10.90;89.10;;;;;;5031496;28;20030;-70
2022/11/29 12:03:36;;;;;;;18.48;8.70;;;10.90;89.10;;;;;;5032233;28;20045;-68
2022/11/29 12:06:36;;;;;;;20.65;8.80;;;10.90;89.20;;;;;;5029771;28;20037;-68
2022/11/29 12:09:07;;;;;;;13.85;6.38;;;10.90;89.30;;;;;;5027335;28;20025;-68
2022/11/29 12:11:45;;;;;;;19.60;8.20;;;10.90;89.30;;;;;;5031820;28;20056;-68
2022/11/29 12:14:26;;;;;;;14.23;6.93;;;11.00;89.30;;;;;;5030334;28;20101;-70
2022/11/29 12:17:00;;;;;;;21.65;8.52;;;11.10;89.20;;;;;;5029908;28;20518;-69
2022/11/29 12:19:34;;;;;;;18.63;8.70;;;11.00;89.00;;;;;;5026613;28;20036;-69
2022/11/29 12:22:06;;;;;;;19.58;8.30;;;11.00;89.10;;;;;;5028110;28;20041;-69
2022/11/29 12:24:37;;;;;;;18.05;8.23;;;11.00;88.90;;;;;;5031844;28;20021;-69
2022/11/29 12:27:04;;;;;;;21.97;9.60;;;11.00;89.10;;;;;;5032137;28;20014;-69
2022/11/29 12:29:34;;;;;;;19.58;8.13;;;11.00;89.10;;;;;;5032296;28;20017;-69
2022/11/29 12:32:23;;;;;;;24.13;10.43;;;11.00;89.20;;;;;;5033276;28;20095;-69
2022/11/29 12:35:13;;;;;;;21.02;9.10;;;10.90;89.10;;;;;;5032305;28;20029;-69
2022/11/29 12:37:52;;;;;;;21.50;9.43;;;10.90;89.20;;;;;;5024840;28;20155;-69
2022/11/29 12:40:46;;;;;;;28.00;11.27;;;10.90;89.20;;;;;;5031426;28;20037;-70
2022/11/29 12:43:42;;;;;;;22.83;11.10;;;10.80;89.10;;;;;;5031729;28;20022;-69
2022/11/29 12:46:26;;;;;;;25.30;13.82;;;10.70;89.20;;;;;;5030972;28;20396;-70
2022/11/29 12:49:16;;;;;;;23.98;11.00;;;10.70;89.40;;;;;;5031155;28;20025;-69
2022/11/29 12:51:57;;;;;;;22.63;10.07;;;10.80;89.30;;;;;;5028248;28;20108;-69
2022/11/29 12:54:27;;;;;;;18.50;8.63;;;10.80;89.30;;;;;;5030639;28;20021;-69
2022/11/29 12:57:16;;;;;;;25.30;10.13;;;10.90;89.40;;;;;;5028641;28;20021;-69
2022/11/29 12:59:59;;;;;;;20.75;10.98;;;10.90;89.30;;;;;;5030592;28;20388;-70
2022/11/29 13:02:25;;;;;;;21.45;10.27;;;11.00;89.20;;;;;;5031231;28;20100;-68
2022/11/29 13:05:10;;;;;;;20.77;9.55;;;11.00;89.20;;;;;;5029355;28;20441;-69
2022/11/29 13:08:02;;;;;;;26.63;11.13;;;11.00;89.00;;;;;;5030297;28;20384;-70
2022/11/29 13:10:35;;;;;;;25.35;10.77;;;10.90;88.90;;;;;;5030626;28;20067;-70
2022/11/29 13:13:36;;;;;;;26.05;12.23;;;10.90;88.90;;;;;;5029472;28;20025;-69
2022/11/29 13:16:25;;;;;;;22.23;10.65;;;10.90;88.90;;;;;;5031296;28;20060;-69
2022/11/29 13:19:18;;;;;;;22.55;10.07;;;11.00;88.90;;;;;;5030211;28;20443;-69
2022/11/29 13:22:11;;;;;;;23.02;9.93;;;11.00;88.70;;;;;;5030995;28;20118;-69
2022/11/29 13:24:58;;;;;;;20.38;10.05;;;11.00;88.60;;;;;;5031187;28;20120;-69